sensor_id;sensor_type;location;lat;lon;timestamp;pressure;altitude;pressure_sealevel;temperature;humidity
72414;BME280;60995;52.154;4.498;2023-03-01T00:01:40;103249.00;;;2.70;76.85
72414;BME280;60995;52.154;4.498;2023-03-01T00:03:58;103247.31;;;2.66;76.90
72414;BME280;60995;52.154;4.498;2023-03-01T00:06:15;103232.94;;;2.70;77.03
72414;BME280;60995;52.154;4.498;2023-03-01T00:08:33;103245.47;;;2.68;77.13
72414;BME280;60995;52.154;4.498;2023-03-01T00:11:12;103245.28;;;2.77;77.34
72414;BME280;60995;52.154;4.498;2023-03-01T00:13:31;103231.34;;;2.58;77.58
72414;BME280;60995;52.154;4.498;2023-03-01T00:15:48;103235.53;;;2.73;77.38
72414;BME280;60995;52.154;4.498;2023-03-01T00:18:05;103241.06;;;2.64;77.37
72414;BME280;60995;52.154;4.498;2023-03-01T00:20:22;103233.66;;;2.78;77.85
72414;BME280;60995;52.154;4.498;2023-03-01T00:22:38;103225.78;;;2.69;78.04
72414;BME280;60995;52.154;4.498;2023-03-01T00:24:55;103233.97;;;2.61;78.59
72414;BME280;60995;52.154;4.498;2023-03-01T00:27:11;103224.91;;;2.69;78.71
72414;BME280;60995;52.154;4.498;2023-03-01T00:29:27;103229.41;;;2.67;78.80
72414;BME280;60995;52.154;4.498;2023-03-01T00:31:43;103218.75;;;2.62;79.20
72414;BME280;60995;52.154;4.498;2023-03-01T00:34:02;103220.53;;;2.63;79.01
72414;BME280;60995;52.154;4.498;2023-03-01T00:36:20;103218.56;;;2.74;78.98
72414;BME280;60995;52.154;4.498;2023-03-01T00:38:38;103219.38;;;2.78;78.74
72414;BME280;60995;52.154;4.498;2023-03-01T00:41:03;103221.97;;;2.83;78.73
72414;BME280;60995;52.154;4.498;2023-03-01T00:43:21;103214.13;;;2.72;79.05
72414;BME280;60995;52.154;4.498;2023-03-01T00:45:37;103218.72;;;2.65;79.29
72414;BME280;60995;52.154;4.498;2023-03-01T00:47:57;103218.72;;;2.65;79.37
72414;BME280;60995;52.154;4.498;2023-03-01T00:50:14;103229.34;;;2.71;79.90
72414;BME280;60995;52.154;4.498;2023-03-01T00:52:30;103216.94;;;2.64;79.76
72414;BME280;60995;52.154;4.498;2023-03-01T00:54:47;103208.97;;;2.61;80.16
72414;BME280;60995;52.154;4.498;2023-03-01T00:57:03;103215.34;;;2.54;80.82
72414;BME280;60995;52.154;4.498;2023-03-01T00:59:19;103214.34;;;2.59;81.02
72414;BME280;60995;52.154;4.498;2023-03-01T01:01:36;103208.84;;;2.69;80.56
72414;BME280;60995;52.154;4.498;2023-03-01T01:04:10;103211.53;;;2.67;80.38
72414;BME280;60995;52.154;4.498;2023-03-01T01:06:34;103210.84;;;2.56;81.11
72414;BME280;60995;52.154;4.498;2023-03-01T01:08:55;103207.16;;;2.61;80.93
72414;BME280;60995;52.154;4.498;2023-03-01T01:11:13;103217.94;;;2.57;81.07
72414;BME280;60995;52.154;4.498;2023-03-01T01:13:30;103213.34;;;2.65;81.24
72414;BME280;60995;52.154;4.498;2023-03-01T01:15:46;103208.03;;;2.62;80.81
72414;BME280;60995;52.154;4.498;2023-03-01T01:18:03;103202.84;;;2.53;80.89
72414;BME280;60995;52.154;4.498;2023-03-01T01:20:19;103199.34;;;2.47;80.95
72414;BME280;60995;52.154;4.498;2023-03-01T01:22:35;103208.38;;;2.43;82.22
72414;BME280;60995;52.154;4.498;2023-03-01T01:24:52;103207.28;;;2.54;82.07
72414;BME280;60995;52.154;4.498;2023-03-01T01:27:08;103193.00;;;2.55;82.10
72414;BME280;60995;52.154;4.498;2023-03-01T01:29:24;103203.00;;;2.43;82.29
72414;BME280;60995;52.154;4.498;2023-03-01T01:31:42;103192.13;;;2.53;82.60
72414;BME280;60995;52.154;4.498;2023-03-01T01:34:01;103192.19;;;2.50;82.52
72414;BME280;60995;52.154;4.498;2023-03-01T01:36:19;103196.81;;;2.40;82.33
72414;BME280;60995;52.154;4.498;2023-03-01T01:38:37;103173.66;;;2.36;82.84
72414;BME280;60995;52.154;4.498;2023-03-01T01:40:54;103180.59;;;2.47;82.92
72414;BME280;60995;52.154;4.498;2023-03-01T01:43:39;103174.31;;;2.52;82.47
72414;BME280;60995;52.154;4.498;2023-03-01T01:46:29;103170.81;;;2.45;83.37
72414;BME280;60995;52.154;4.498;2023-03-01T01:48:51;103162.81;;;2.43;82.95
72414;BME280;60995;52.154;4.498;2023-03-01T01:51:18;103153.75;;;2.51;82.83
72414;BME280;60995;52.154;4.498;2023-03-01T01:53:38;103155.53;;;2.52;82.77
72414;BME280;60995;52.154;4.498;2023-03-01T01:55:58;103151.28;;;2.38;82.38
72414;BME280;60995;52.154;4.498;2023-03-01T01:58:19;103153.00;;;2.42;82.99
72414;BME280;60995;52.154;4.498;2023-03-01T02:00:38;103150.31;;;2.42;82.61
72414;BME280;60995;52.154;4.498;2023-03-01T02:03:00;103155.69;;;2.42;82.12
72414;BME280;60995;52.154;4.498;2023-03-01T02:07:53;103159.97;;;2.53;82.12
72414;BME280;60995;52.154;4.498;2023-03-01T02:10:09;103149.50;;;2.39;81.72
72414;BME280;60995;52.154;4.498;2023-03-01T02:12:26;103142.59;;;2.27;81.89
72414;BME280;60995;52.154;4.498;2023-03-01T02:14:43;103146.19;;;2.23;82.27
72414;BME280;60995;52.154;4.498;2023-03-01T02:16:59;103146.03;;;2.32;82.10
72414;BME280;60995;52.154;4.498;2023-03-01T02:22:24;103153.16;;;2.33;82.44
72414;BME280;60995;52.154;4.498;2023-03-01T02:27:06;103138.16;;;2.24;82.65
72414;BME280;60995;52.154;4.498;2023-03-01T02:29:24;103141.66;;;2.29;82.34
72414;BME280;60995;52.154;4.498;2023-03-01T02:31:41;103142.50;;;2.30;82.11
72414;BME280;60995;52.154;4.498;2023-03-01T02:33:57;103140.81;;;2.26;82.47
72414;BME280;60995;52.154;4.498;2023-03-01T02:36:19;103137.19;;;2.28;83.22
72414;BME280;60995;52.154;4.498;2023-03-01T02:38:48;103136.25;;;2.31;82.59
72414;BME280;60995;52.154;4.498;2023-03-01T02:41:10;103128.16;;;2.34;82.74
72414;BME280;60995;52.154;4.498;2023-03-01T02:43:32;103138.00;;;2.34;82.96
72414;BME280;60995;52.154;4.498;2023-03-01T02:45:51;103130.97;;;2.26;82.59
72414;BME280;60995;52.154;4.498;2023-03-01T02:48:09;103138.94;;;2.31;82.56
72414;BME280;60995;52.154;4.498;2023-03-01T02:50:47;103127.53;;;2.18;82.65
72414;BME280;60995;52.154;4.498;2023-03-01T02:53:41;103132.00;;;2.18;83.44
72414;BME280;60995;52.154;4.498;2023-03-01T02:56:02;103124.03;;;2.14;83.54
72414;BME280;60995;52.154;4.498;2023-03-01T02:58:19;103120.47;;;2.12;83.58
72414;BME280;60995;52.154;4.498;2023-03-01T03:00:38;103119.56;;;2.13;84.21
72414;BME280;60995;52.154;4.498;2023-03-01T03:03:01;103121.09;;;2.30;83.80
72414;BME280;60995;52.154;4.498;2023-03-01T03:05:20;103119.38;;;2.26;83.79
72414;BME280;60995;52.154;4.498;2023-03-01T03:07:43;103115.81;;;2.24;83.06
72414;BME280;60995;52.154;4.498;2023-03-01T03:10:03;103108.13;;;2.05;83.53
72414;BME280;60995;52.154;4.498;2023-03-01T03:12:22;103101.63;;;2.19;83.31
72414;BME280;60995;52.154;4.498;2023-03-01T03:14:38;103104.19;;;2.26;82.91
72414;BME280;60995;52.154;4.498;2023-03-01T03:16:54;103096.38;;;2.12;82.34
72414;BME280;60995;52.154;4.498;2023-03-01T03:19:11;103104.28;;;2.22;82.74
72414;BME280;60995;52.154;4.498;2023-03-01T03:21:27;103095.41;;;2.18;82.64
72414;BME280;60995;52.154;4.498;2023-03-01T03:23:43;103099.84;;;2.18;83.05
72414;BME280;60995;52.154;4.498;2023-03-01T03:26:00;103093.06;;;1.98;82.86
72414;BME280;60995;52.154;4.498;2023-03-01T03:28:16;103092.13;;;2.01;83.24
72414;BME280;60995;52.154;4.498;2023-03-01T03:30:33;103092.81;;;2.12;82.71
72414;BME280;60995;52.154;4.498;2023-03-01T03:32:49;103092.97;;;2.04;83.33
72414;BME280;60995;52.154;4.498;2023-03-01T03:35:09;103093.84;;;2.06;83.37
72414;BME280;60995;52.154;4.498;2023-03-01T03:37:26;103089.47;;;1.99;83.60
72414;BME280;60995;52.154;4.498;2023-03-01T03:40:00;103098.22;;;2.10;83.56
72414;BME280;60995;52.154;4.498;2023-03-01T03:42:17;103099.22;;;2.03;83.20
72414;BME280;60995;52.154;4.498;2023-03-01T03:44:33;103086.59;;;2.10;83.29
72414;BME280;60995;52.154;4.498;2023-03-01T03:46:49;103085.72;;;2.09;83.29
72414;BME280;60995;52.154;4.498;2023-03-01T03:49:05;103090.16;;;2.12;83.76
72414;BME280;60995;52.154;4.498;2023-03-01T03:51:22;103090.19;;;2.10;83.43
72414;BME280;60995;52.154;4.498;2023-03-01T03:53:38;103085.81;;;2.05;83.69
72414;BME280;60995;52.154;4.498;2023-03-01T03:55:55;103080.41;;;2.08;83.35
72414;BME280;60995;52.154;4.498;2023-03-01T03:58:11;103083.28;;;1.97;83.60
72414;BME280;60995;52.154;4.498;2023-03-01T04:00:28;103084.88;;;2.07;83.16
72414;BME280;60995;52.154;4.498;2023-03-01T04:02:45;103080.63;;;1.94;83.30
72414;BME280;60995;52.154;4.498;2023-03-01T04:05:03;103086.88;;;1.96;83.08
72414;BME280;60995;52.154;4.498;2023-03-01T04:07:19;103079.94;;;1.84;83.39
72414;BME280;60995;52.154;4.498;2023-03-01T04:09:36;103086.31;;;1.75;84.33
72414;BME280;60995;52.154;4.498;2023-03-01T04:11:52;103084.66;;;1.67;84.81
72414;BME280;60995;52.154;4.498;2023-03-01T04:14:09;103090.13;;;1.59;85.26
72414;BME280;60995;52.154;4.498;2023-03-01T04:16:26;103087.34;;;1.67;85.12
72414;BME280;60995;52.154;4.498;2023-03-01T04:18:42;103086.41;;;1.69;85.00
72414;BME280;60995;52.154;4.498;2023-03-01T04:20:59;103090.19;;;1.56;85.28
72414;BME280;60995;52.154;4.498;2023-03-01T04:23:17;103079.41;;;1.62;84.68
72414;BME280;60995;52.154;4.498;2023-03-01T04:25:40;103076.97;;;1.45;85.04
72414;BME280;60995;52.154;4.498;2023-03-01T04:28:10;103077.78;;;1.50;85.54
72414;BME280;60995;52.154;4.498;2023-03-01T04:30:26;103083.06;;;1.55;85.02
72414;BME280;60995;52.154;4.498;2023-03-01T04:32:42;103076.00;;;1.51;85.50
72414;BME280;60995;52.154;4.498;2023-03-01T04:34:59;103085.13;;;1.37;85.41
72414;BME280;60995;52.154;4.498;2023-03-01T04:37:16;103077.22;;;1.28;85.27
72414;BME280;60995;52.154;4.498;2023-03-01T04:39:32;103076.06;;;1.44;85.48
72414;BME280;60995;52.154;4.498;2023-03-01T04:41:48;103082.50;;;1.32;85.07
72414;BME280;60995;52.154;4.498;2023-03-01T04:44:06;103067.44;;;1.27;85.68
72414;BME280;60995;52.154;4.498;2023-03-01T04:46:24;103068.41;;;1.20;85.54
72414;BME280;60995;52.154;4.498;2023-03-01T04:48:42;103063.94;;;1.22;85.41
72414;BME280;60995;52.154;4.498;2023-03-01T04:51:00;103069.44;;;1.09;85.83
72414;BME280;60995;52.154;4.498;2023-03-01T04:53:16;103060.38;;;1.20;85.55
72414;BME280;60995;52.154;4.498;2023-03-01T04:55:34;103062.38;;;1.05;86.04
72414;BME280;60995;52.154;4.498;2023-03-01T04:57:50;103058.88;;;1.00;86.17
72414;BME280;60995;52.154;4.498;2023-03-01T05:00:10;103052.47;;;1.15;85.82
72414;BME280;60995;52.154;4.498;2023-03-01T05:02:36;103039.84;;;1.23;85.26
72414;BME280;60995;52.154;4.498;2023-03-01T05:04:52;103044.31;;;1.23;84.42
72414;BME280;60995;52.154;4.498;2023-03-01T05:07:13;103046.25;;;1.11;85.10
72414;BME280;60995;52.154;4.498;2023-03-01T05:09:35;103048.13;;;1.06;85.96
72414;BME280;60995;52.154;4.498;2023-03-01T05:11:52;103057.13;;;1.01;85.60
72414;BME280;60995;52.154;4.498;2023-03-01T05:14:09;103048.88;;;1.14;85.12
72414;BME280;60995;52.154;4.498;2023-03-01T05:16:26;103053.28;;;1.19;84.76
72414;BME280;60995;52.154;4.498;2023-03-01T05:18:42;103047.91;;;1.19;84.96
72414;BME280;60995;52.154;4.498;2023-03-01T05:23:22;103050.50;;;1.25;84.74
72414;BME280;60995;52.154;4.498;2023-03-01T05:25:39;103038.91;;;1.26;84.57
72414;BME280;60995;52.154;4.498;2023-03-01T05:27:56;103040.84;;;1.18;84.78
72414;BME280;60995;52.154;4.498;2023-03-01T05:30:12;103039.22;;;1.04;84.70
72414;BME280;60995;52.154;4.498;2023-03-01T05:32:30;103026.84;;;0.97;84.27
72414;BME280;60995;52.154;4.498;2023-03-01T05:34:52;103027.56;;;1.10;84.46
72414;BME280;60995;52.154;4.498;2023-03-01T05:37:11;103016.97;;;1.02;84.69
72414;BME280;60995;52.154;4.498;2023-03-01T05:39:29;103017.72;;;1.13;84.53
72414;BME280;60995;52.154;4.498;2023-03-01T05:41:45;103019.59;;;1.08;84.43
72414;BME280;60995;52.154;4.498;2023-03-01T05:44:02;103017.75;;;1.10;84.53
72414;BME280;60995;52.154;4.498;2023-03-01T05:46:20;103013.31;;;1.11;84.45
72414;BME280;60995;52.154;4.498;2023-03-01T05:48:39;103012.47;;;1.07;85.06
72414;BME280;60995;52.154;4.498;2023-03-01T05:50:59;103007.06;;;1.10;85.09
72414;BME280;60995;52.154;4.498;2023-03-01T05:53:18;103004.31;;;1.15;84.64
72414;BME280;60995;52.154;4.498;2023-03-01T05:55:37;103007.69;;;1.28;84.42
72414;BME280;60995;52.154;4.498;2023-03-01T05:57:53;103009.44;;;1.30;83.94
72414;BME280;60995;52.154;4.498;2023-03-01T06:00:11;103003.34;;;1.21;84.54
72414;BME280;60995;52.154;4.498;2023-03-01T06:02:29;103001.69;;;1.13;84.60
72414;BME280;60995;52.154;4.498;2023-03-01T06:04:45;102996.31;;;1.12;85.18
72414;BME280;60995;52.154;4.498;2023-03-01T06:07:02;102995.34;;;1.19;85.13
72414;BME280;60995;52.154;4.498;2023-03-01T06:09:18;102999.84;;;1.15;84.52
72414;BME280;60995;52.154;4.498;2023-03-01T06:11:35;102998.84;;;1.21;84.06
72414;BME280;60995;52.154;4.498;2023-03-01T06:13:52;103001.63;;;1.17;85.13
72414;BME280;60995;52.154;4.498;2023-03-01T06:16:09;102998.84;;;1.21;85.18
72414;BME280;60995;52.154;4.498;2023-03-01T06:18:25;103003.03;;;1.39;84.19
72414;BME280;60995;52.154;4.498;2023-03-01T06:20:41;103006.75;;;1.29;84.67
72414;BME280;60995;52.154;4.498;2023-03-01T06:22:58;103005.94;;;1.25;84.80
72414;BME280;60995;52.154;4.498;2023-03-01T06:25:18;103009.34;;;1.35;84.35
72414;BME280;60995;52.154;4.498;2023-03-01T06:27:36;103008.78;;;1.13;83.97
72414;BME280;60995;52.154;4.498;2023-03-01T06:29:52;103007.97;;;1.11;84.82
72414;BME280;60995;52.154;4.498;2023-03-01T06:32:09;103001.53;;;1.23;85.40
72414;BME280;60995;52.154;4.498;2023-03-01T06:34:25;103003.19;;;1.30;84.81
72414;BME280;60995;52.154;4.498;2023-03-01T06:36:41;102996.69;;;1.46;84.45
72414;BME280;60995;52.154;4.498;2023-03-01T06:38:58;102997.56;;;1.47;84.70
72414;BME280;60995;52.154;4.498;2023-03-01T06:41:14;102992.19;;;1.48;84.86
72414;BME280;60995;52.154;4.498;2023-03-01T06:43:30;102998.84;;;1.77;85.56
72414;BME280;60995;52.154;4.498;2023-03-01T06:45:47;102991.97;;;2.11;84.88
72414;BME280;60995;52.154;4.498;2023-03-01T06:48:07;103000.13;;;2.50;84.78
72414;BME280;60995;52.154;4.498;2023-03-01T06:50:26;103003.28;;;2.69;84.50
72414;BME280;60995;52.154;4.498;2023-03-01T06:52:43;102998.69;;;3.53;84.58
72414;BME280;60995;52.154;4.498;2023-03-01T06:55:02;102994.50;;;4.41;83.51
72414;BME280;60995;52.154;4.498;2023-03-01T06:57:19;102996.91;;;5.39;81.69
72414;BME280;60995;52.154;4.498;2023-03-01T06:59:36;102991.78;;;6.35;79.41
72414;BME280;60995;52.154;4.498;2023-03-01T07:01:52;102989.56;;;7.38;77.52
72414;BME280;60995;52.154;4.498;2023-03-01T07:04:08;102995.41;;;8.32;75.44
72414;BME280;60995;52.154;4.498;2023-03-01T07:06:25;102989.06;;;8.92;72.86
72414;BME280;60995;52.154;4.498;2023-03-01T07:08:41;102997.44;;;9.78;72.25
72414;BME280;60995;52.154;4.498;2023-03-01T07:10:58;102989.84;;;10.37;68.38
72414;BME280;60995;52.154;4.498;2023-03-01T07:13:15;102989.91;;;10.69;67.04
72414;BME280;60995;52.154;4.498;2023-03-01T07:15:31;102995.41;;;10.34;61.39
72414;BME280;60995;52.154;4.498;2023-03-01T07:17:48;102977.28;;;9.66;56.54
72414;BME280;60995;52.154;4.498;2023-03-01T07:20:07;102989.59;;;9.37;59.39
72414;BME280;60995;52.154;4.498;2023-03-01T07:22:23;102997.91;;;9.15;61.11
72414;BME280;60995;52.154;4.498;2023-03-01T07:24:41;102995.88;;;8.82;61.75
72414;BME280;60995;52.154;4.498;2023-03-01T07:26:57;102996.09;;;7.96;61.75
72414;BME280;60995;52.154;4.498;2023-03-01T07:29:14;103007.91;;;7.08;62.30
72414;BME280;60995;52.154;4.498;2023-03-01T07:31:30;103007.63;;;6.44;65.20
72414;BME280;60995;52.154;4.498;2023-03-01T07:33:47;103004.47;;;6.81;65.90
72414;BME280;60995;52.154;4.498;2023-03-01T07:36:04;103003.50;;;6.58;64.20
72414;BME280;60995;52.154;4.498;2023-03-01T07:38:21;103005.06;;;6.65;65.27
72414;BME280;60995;52.154;4.498;2023-03-01T07:40:37;103010.53;;;6.62;66.37
72414;BME280;60995;52.154;4.498;2023-03-01T07:42:57;103004.78;;;6.48;66.15
72414;BME280;60995;52.154;4.498;2023-03-01T07:45:14;103010.81;;;6.56;65.70
72414;BME280;60995;52.154;4.498;2023-03-01T07:47:31;103012.25;;;6.41;64.99
72414;BME280;60995;52.154;4.498;2023-03-01T07:49:48;103014.78;;;6.45;66.27
72414;BME280;60995;52.154;4.498;2023-03-01T07:52:04;103008.69;;;6.40;65.93
72414;BME280;60995;52.154;4.498;2023-03-01T07:54:20;103015.22;;;6.33;66.17
72414;BME280;60995;52.154;4.498;2023-03-01T07:56:36;103009.75;;;6.60;66.32
72414;BME280;60995;52.154;4.498;2023-03-01T07:58:53;103003.00;;;7.18;65.38
72414;BME280;60995;52.154;4.498;2023-03-01T08:01:13;103005.22;;;7.30;65.15
72414;BME280;60995;52.154;4.498;2023-03-01T08:03:31;103003.91;;;7.61;64.38
72414;BME280;60995;52.154;4.498;2023-03-01T08:05:48;103006.66;;;8.02;64.42
72414;BME280;60995;52.154;4.498;2023-03-01T08:08:04;102994.81;;;9.22;61.59
72414;BME280;60995;52.154;4.498;2023-03-01T08:10:21;102992.09;;;11.42;58.98
72414;BME280;60995;52.154;4.498;2023-03-01T08:12:37;102992.00;;;14.01;53.01
72414;BME280;60995;52.154;4.498;2023-03-01T08:14:54;102977.81;;;14.21;45.44
72414;BME280;60995;52.154;4.498;2023-03-01T08:17:13;102991.78;;;13.91;45.47
72414;BME280;60995;52.154;4.498;2023-03-01T08:19:30;102983.63;;;15.54;44.10
72414;BME280;60995;52.154;4.498;2023-03-01T08:21:46;102978.25;;;14.67;43.40
72414;BME280;60995;52.154;4.498;2023-03-01T08:24:04;102980.88;;;14.68;42.09
72414;BME280;60995;52.154;4.498;2023-03-01T08:26:22;102972.34;;;14.09;43.61
72414;BME280;60995;52.154;4.498;2023-03-01T08:28:38;102983.59;;;14.17;43.64
72414;BME280;60995;52.154;4.498;2023-03-01T08:30:55;102965.81;;;14.24;42.14
72414;BME280;60995;52.154;4.498;2023-03-01T08:33:11;102965.78;;;14.50;42.20
72414;BME280;60995;52.154;4.498;2023-03-01T08:35:27;102974.31;;;11.98;47.87
72414;BME280;60995;52.154;4.498;2023-03-01T08:37:44;102971.50;;;12.86;45.28
72414;BME280;60995;52.154;4.498;2023-03-01T08:40:00;102971.19;;;13.72;43.33
72414;BME280;60995;52.154;4.498;2023-03-01T08:42:20;102968.44;;;13.32;44.66
72414;BME280;60995;52.154;4.498;2023-03-01T08:44:37;102965.81;;;14.24;43.50
72414;BME280;60995;52.154;4.498;2023-03-01T08:46:53;102961.88;;;14.91;40.93
72414;BME280;60995;52.154;4.498;2023-03-01T08:49:16;102970.28;;;14.38;41.48
72414;BME280;60995;52.154;4.498;2023-03-01T08:51:35;102976.66;;;11.73;47.71
72414;BME280;60995;52.154;4.498;2023-03-01T08:53:54;102978.91;;;14.45;42.93
72414;BME280;60995;52.154;4.498;2023-03-01T08:56:11;102974.97;;;13.57;43.60
72414;BME280;60995;52.154;4.498;2023-03-01T08:58:28;102964.63;;;13.62;42.90
72414;BME280;60995;52.154;4.498;2023-03-01T09:00:45;102970.81;;;14.69;40.55
72414;BME280;60995;52.154;4.498;2023-03-01T09:03:01;102968.78;;;13.55;42.72
72414;BME280;60995;52.154;4.498;2023-03-01T09:05:18;102961.97;;;14.65;41.46
72414;BME280;60995;52.154;4.498;2023-03-01T09:07:34;102973.88;;;14.64;40.46
72414;BME280;60995;52.154;4.498;2023-03-01T09:09:50;102970.69;;;14.70;41.09
72414;BME280;60995;52.154;4.498;2023-03-01T09:12:09;102970.25;;;15.14;40.15
72414;BME280;60995;52.154;4.498;2023-03-01T09:14:25;102964.59;;;12.95;44.13
72414;BME280;60995;52.154;4.498;2023-03-01T09:16:42;102967.03;;;14.96;40.32
72414;BME280;60995;52.154;4.498;2023-03-01T09:18:58;102964.38;;;14.31;41.02
72414;BME280;60995;52.154;4.498;2023-03-01T09:21:16;102961.31;;;12.17;45.59
72414;BME280;60995;52.154;4.498;2023-03-01T09:23:39;102964.94;;;12.47;47.04
72414;BME280;60995;52.154;4.498;2023-03-01T09:25:57;102961.00;;;14.15;42.51
72414;BME280;60995;52.154;4.498;2023-03-01T09:28:13;102960.25;;;13.60;43.41
72414;BME280;60995;52.154;4.498;2023-03-01T09:30:29;102965.75;;;13.18;45.02
72414;BME280;60995;52.154;4.498;2023-03-01T09:32:46;102950.69;;;14.70;41.73
72414;BME280;60995;52.154;4.498;2023-03-01T09:35:02;102952.44;;;15.57;41.60
72414;BME280;60995;52.154;4.498;2023-03-01T09:37:22;102952.22;;;14.74;41.03
72414;BME280;60995;52.154;4.498;2023-03-01T09:39:38;102954.34;;;14.19;43.96
72414;BME280;60995;52.154;4.498;2023-03-01T09:41:58;102954.38;;;15.79;42.49
72414;BME280;60995;52.154;4.498;2023-03-01T09:44:35;102938.53;;;16.52;39.27
72414;BME280;60995;52.154;4.498;2023-03-01T09:47:00;102942.41;;;15.20;40.46
72414;BME280;60995;52.154;4.498;2023-03-01T09:49:20;102943.13;;;16.63;36.74
72414;BME280;60995;52.154;4.498;2023-03-01T09:51:38;102926.88;;;18.94;34.10
72414;BME280;60995;52.154;4.498;2023-03-01T09:53:55;102925.16;;;19.32;31.68
72414;BME280;60995;52.154;4.498;2023-03-01T09:56:41;102940.50;;;16.95;36.48
72414;BME280;60995;52.154;4.498;2023-03-01T09:59:41;102931.56;;;18.00;33.52
72414;BME280;60995;52.154;4.498;2023-03-01T10:02:30;102926.88;;;18.22;34.48
72414;BME280;60995;52.154;4.498;2023-03-01T10:10:47;102940.47;;;13.96;40.82
72414;BME280;60995;52.154;4.498;2023-03-01T10:15:45;102933.31;;;16.37;36.49
72414;BME280;60995;52.154;4.498;2023-03-01T10:18:16;102934.31;;;14.70;39.42
72414;BME280;60995;52.154;4.498;2023-03-01T10:20:46;102928.81;;;16.48;36.16
72414;BME280;60995;52.154;4.498;2023-03-01T10:23:08;102930.63;;;14.32;40.12
72414;BME280;60995;52.154;4.498;2023-03-01T10:28:01;102915.53;;;14.65;40.22
72414;BME280;60995;52.154;4.498;2023-03-01T10:30:37;102902.63;;;14.67;40.77
72414;BME280;60995;52.154;4.498;2023-03-01T10:32:57;102909.16;;;16.31;37.57
72414;BME280;60995;52.154;4.498;2023-03-01T10:38:02;102908.34;;;14.13;38.94
72414;BME280;60995;52.154;4.498;2023-03-01T10:40:23;102896.88;;;13.56;41.42
72414;BME280;60995;52.154;4.498;2023-03-01T10:42:49;102894.84;;;16.05;36.15
72414;BME280;60995;52.154;4.498;2023-03-01T10:47:45;102881.28;;;16.03;36.94
72414;BME280;60995;52.154;4.498;2023-03-01T10:50:05;102887.25;;;15.26;38.30
72414;BME280;60995;52.154;4.498;2023-03-01T10:52:36;102881.00;;;15.95;37.37
72414;BME280;60995;52.154;4.498;2023-03-01T10:54:59;102892.22;;;15.21;38.45
72414;BME280;60995;52.154;4.498;2023-03-01T10:57:28;102888.69;;;15.43;37.72
72414;BME280;60995;52.154;4.498;2023-03-01T11:00:02;102876.50;;;14.00;38.24
72414;BME280;60995;52.154;4.498;2023-03-01T11:02:34;102876.50;;;13.75;39.55
72414;BME280;60995;52.154;4.498;2023-03-01T11:07:52;102876.66;;;12.78;42.29
72414;BME280;60995;52.154;4.498;2023-03-01T11:10:17;102873.06;;;13.05;42.29
72414;BME280;60995;52.154;4.498;2023-03-01T11:12:43;102881.59;;;13.13;42.77
72414;BME280;60995;52.154;4.498;2023-03-01T11:14:59;102875.41;;;13.77;42.80
72414;BME280;60995;52.154;4.498;2023-03-01T11:17:29;102872.22;;;14.59;41.26
72414;BME280;60995;52.154;4.498;2023-03-01T11:20:04;102869.78;;;14.43;40.65
72414;BME280;60995;52.154;4.498;2023-03-01T11:22:54;102861.25;;;12.50;44.17
72414;BME280;60995;52.154;4.498;2023-03-01T11:25:14;102850.53;;;13.69;41.88
72414;BME280;60995;52.154;4.498;2023-03-01T11:27:32;102852.69;;;13.38;42.12
72414;BME280;60995;52.154;4.498;2023-03-01T11:30:03;102852.16;;;11.93;45.94
72414;BME280;60995;52.154;4.498;2023-03-01T11:32:26;102840.41;;;10.72;49.27
72414;BME280;60995;52.154;4.498;2023-03-01T11:35:23;102835.16;;;12.18;44.08
72414;BME280;60995;52.154;4.498;2023-03-01T11:40:41;102827.53;;;13.20;42.31
72414;BME280;60995;52.154;4.498;2023-03-01T11:43:17;102821.28;;;12.23;41.55
72414;BME280;60995;52.154;4.498;2023-03-01T11:57:03;102819.91;;;11.87;37.89
72414;BME280;60995;52.154;4.498;2023-03-01T11:59:49;102811.69;;;11.29;36.81
72414;BME280;60995;52.154;4.498;2023-03-01T12:10:34;102802.44;;;9.91;38.54
72414;BME280;60995;52.154;4.498;2023-03-01T12:22:31;102781.13;;;10.33;38.38
72414;BME280;60995;52.154;4.498;2023-03-01T12:25:16;102781.28;;;9.82;39.94
72414;BME280;60995;52.154;4.498;2023-03-01T12:41:32;102767.75;;;8.96;44.13
72414;BME280;60995;52.154;4.498;2023-03-01T12:50:06;102769.44;;;8.25;43.45
72414;BME280;60995;52.154;4.498;2023-03-01T12:52:39;102767.09;;;8.36;43.78
72414;BME280;60995;52.154;4.498;2023-03-01T12:55:01;102772.91;;;8.09;44.67
72414;BME280;60995;52.154;4.498;2023-03-01T13:00:25;102753.50;;;8.57;43.36
72414;BME280;60995;52.154;4.498;2023-03-01T13:03:10;102748.56;;;8.48;42.53
72414;BME280;60995;52.154;4.498;2023-03-01T13:08:48;102755.41;;;8.55;43.36
72414;BME280;60995;52.154;4.498;2023-03-01T13:11:18;102750.59;;;8.42;44.12
72414;BME280;60995;52.154;4.498;2023-03-01T13:13:36;102749.75;;;8.04;43.71
72414;BME280;60995;52.154;4.498;2023-03-01T13:15:53;102750.59;;;8.04;44.25
72414;BME280;60995;52.154;4.498;2023-03-01T13:23:07;102732.97;;;8.70;44.75
72414;BME280;60995;52.154;4.498;2023-03-01T13:25:24;102740.53;;;8.08;44.44
72414;BME280;60995;52.154;4.498;2023-03-01T13:27:40;102731.88;;;8.38;44.77
72414;BME280;60995;52.154;4.498;2023-03-01T13:29:59;102740.34;;;8.30;45.43
72414;BME280;60995;52.154;4.498;2023-03-01T13:37:36;102720.00;;;8.40;45.25
72414;BME280;60995;52.154;4.498;2023-03-01T13:39:53;102709.94;;;8.07;46.06
72414;BME280;60995;52.154;4.498;2023-03-01T13:42:40;102709.00;;;7.89;46.45
72414;BME280;60995;52.154;4.498;2023-03-01T13:44:58;102708.53;;;8.18;45.86
72414;BME280;60995;52.154;4.498;2023-03-01T13:47:17;102715.38;;;8.25;46.09
72414;BME280;60995;52.154;4.498;2023-03-01T13:49:46;102701.88;;;8.42;45.92
72414;BME280;60995;52.154;4.498;2023-03-01T13:52:06;102709.13;;;8.05;47.30
72414;BME280;60995;52.154;4.498;2023-03-01T13:54:38;102707.97;;;7.92;46.92
72414;BME280;60995;52.154;4.498;2023-03-01T13:56:55;102697.16;;;8.11;47.29
72414;BME280;60995;52.154;4.498;2023-03-01T13:59:16;102691.53;;;8.33;46.82